createdAt,value
2019-01-26T00:00:56.487Z,78.20
2019-01-26T00:03:26.878Z,78.23
2019-01-26T00:05:57.253Z,78.07
2019-01-26T00:08:27.595Z,78.46
2019-01-26T00:10:58.083Z,78.38
2019-01-26T00:13:28.478Z,78.77
2019-01-26T00:15:58.835Z,77.59
2019-01-26T00:18:29.282Z,77.74
2019-01-26T00:20:59.706Z,77.44
2019-01-26T00:23:30.085Z,78.31
2019-01-26T00:26:00.477Z,78.32
2019-01-26T00:28:30.941Z,78.57
2019-01-26T00:31:07.020Z,78.52
2019-01-26T00:33:36.915Z,79.39
2019-01-26T00:36:07.476Z,80.17
2019-01-26T00:38:37.833Z,80.13
2019-01-26T00:41:08.300Z,81.49
2019-01-26T00:43:38.950Z,81.79
2019-01-26T00:46:09.398Z,83.79
2019-01-26T00:48:39.772Z,84.22
2019-01-26T00:51:10.318Z,86.04
2019-01-26T00:53:40.719Z,87.00
2019-01-26T00:56:11.180Z,87.52
2019-01-26T00:58:41.636Z,88.14
2019-01-26T01:01:12.163Z,89.37
2019-01-26T01:03:42.547Z,90.01
2019-01-26T01:06:12.996Z,90.54
2019-01-26T01:08:43.457Z,90.43
2019-01-26T01:11:14.016Z,91.86
2019-01-26T01:13:44.325Z,92.37
2019-01-26T01:16:14.766Z,93.07
2019-01-26T01:18:45.124Z,93.55
2019-01-26T01:21:15.673Z,93.42
2019-01-26T01:23:46.114Z,93.07
2019-01-26T01:26:16.511Z,93.41
2019-01-26T01:28:46.995Z,94.04
2019-01-26T01:31:17.672Z,94.93
2019-01-26T01:33:48.092Z,94.74
2019-01-26T01:36:18.729Z,95.74
2019-01-26T01:38:49.194Z,95.71
2019-01-26T01:41:19.529Z,96.01
2019-01-26T01:43:49.866Z,95.19
2019-01-26T01:46:20.208Z,95.24
2019-01-26T01:48:50.623Z,94.70
2019-01-26T01:51:21.068Z,94.39
2019-01-26T01:53:51.742Z,94.22
2019-01-26T01:56:22.111Z,94.98
2019-01-26T01:58:52.503Z,95.01
2019-01-26T02:01:22.870Z,95.34
2019-01-26T02:03:53.083Z,96.62
2019-01-26T02:06:23.595Z,96.39
2019-01-26T02:08:53.954Z,96.76
2019-01-26T02:11:24.263Z,96.55
2019-01-26T02:13:54.588Z,96.93
2019-01-26T02:16:24.891Z,98.06
2019-01-26T02:18:55.109Z,97.83
2019-01-26T02:21:25.485Z,98.31
2019-01-26T02:23:55.613Z,99.13
2019-01-26T02:26:25.975Z,99.30
2019-01-26T02:28:58.276Z,99.78
2019-01-26T02:31:28.658Z,98.82
2019-01-26T02:33:58.994Z,98.45
2019-01-26T02:36:29.281Z,98.29
2019-01-26T02:38:59.664Z,96.97
2019-01-26T02:41:30.036Z,96.69
2019-01-26T02:44:00.229Z,96.13
2019-01-26T02:46:30.497Z,96.52
2019-01-26T02:49:00.906Z,96.50
2019-01-26T02:51:31.242Z,96.27
2019-01-26T02:54:01.498Z,96.21
2019-01-26T02:56:31.814Z,96.37
2019-01-26T02:59:04.254Z,96.37
2019-01-26T03:01:34.636Z,96.56
2019-01-26T03:04:05.371Z,97.23
2019-01-26T03:06:35.785Z,97.29
2019-01-26T03:09:09.988Z,96.77
2019-01-26T03:11:40.272Z,97.03
2019-01-26T03:14:10.719Z,97.03
2019-01-26T03:16:41.111Z,97.93
2019-01-26T03:19:11.555Z,98.79
2019-01-26T03:21:41.863Z,99.05
2019-01-26T03:24:12.425Z,99.31
2019-01-26T03:26:42.786Z,98.94
2019-01-26T03:29:13.252Z,98.38
2019-01-26T03:31:43.695Z,97.13
2019-01-26T03:34:14.006Z,96.97
2019-01-26T03:36:44.302Z,97.68
2019-01-26T03:39:14.685Z,98.11
2019-01-26T03:41:45.086Z,98.08
2019-01-26T03:44:15.434Z,99.04
2019-01-26T03:46:45.739Z,98.59
2019-01-26T03:49:16.085Z,98.56
2019-01-26T03:51:46.464Z,98.66
2019-01-26T03:54:16.870Z,98.46
2019-01-26T03:56:47.215Z,98.71
2019-01-26T03:59:17.629Z,98.41
2019-01-26T04:01:47.921Z,98.80
2019-01-26T04:04:18.384Z,99.28
2019-01-26T04:06:48.794Z,99.81
2019-01-26T04:09:19.151Z,100.00
2019-01-26T04:11:49.499Z,99.34
2019-01-26T04:14:19.800Z,98.32
2019-01-26T04:16:50.119Z,97.46
2019-01-26T04:19:20.519Z,96.90
2019-01-26T04:21:50.898Z,96.28
2019-01-26T04:24:21.629Z,96.22
2019-01-26T04:26:52.031Z,96.62
2019-01-26T04:29:22.293Z,96.61
2019-01-26T04:31:52.787Z,96.13
2019-01-26T04:34:23.246Z,96.00
2019-01-26T04:36:53.532Z,94.93
2019-01-26T04:39:23.772Z,94.95
2019-01-26T04:41:54.098Z,95.23
2019-01-26T04:44:24.534Z,95.22
2019-01-26T04:46:54.867Z,95.24
2019-01-26T04:49:25.239Z,95.16
2019-01-26T04:51:55.592Z,95.71
2019-01-26T04:54:25.861Z,96.06
2019-01-26T04:56:56.214Z,96.17
2019-01-26T04:59:26.603Z,94.92
2019-01-26T05:01:56.987Z,95.21
2019-01-26T05:04:27.310Z,95.40
2019-01-26T05:06:57.701Z,95.33
2019-01-26T05:09:28.029Z,95.15
2019-01-26T05:11:59.634Z,95.38
2019-01-26T05:14:30.039Z,95.65
2019-01-26T05:17:00.318Z,96.12
2019-01-26T05:19:30.611Z,96.63
2019-01-26T05:22:04.009Z,97.75
2019-01-26T05:24:34.261Z,98.64
2019-01-26T05:27:04.819Z,99.19
2019-01-26T05:29:35.374Z,99.54
2019-01-26T05:32:06.100Z,99.04
2019-01-26T05:34:36.411Z,99.15
2019-01-26T05:37:06.918Z,99.01
2019-01-26T05:39:37.243Z,99.30
2019-01-26T05:42:07.518Z,99.34
2019-01-26T05:44:37.854Z,99.72
2019-01-26T05:47:08.269Z,99.95
2019-01-26T05:49:38.571Z,100.00
2019-01-26T05:52:09.060Z,100.00
2019-01-26T05:54:39.484Z,100.00
2019-01-26T05:57:09.806Z,100.00
2019-01-26T05:59:40.104Z,100.00
2019-01-26T06:02:11.050Z,100.00
2019-01-26T06:04:41.375Z,100.00
2019-01-26T06:07:11.693Z,100.00
2019-01-26T06:09:42.128Z,100.00
2019-01-26T06:12:12.602Z,100.00
2019-01-26T06:14:43.021Z,100.00
2019-01-26T06:17:13.426Z,100.00
2019-01-26T06:19:43.971Z,100.00
2019-01-26T06:22:14.322Z,100.00
2019-01-26T06:24:44.737Z,100.00
2019-01-26T06:27:15.203Z,100.00
2019-01-26T06:29:45.581Z,99.37
2019-01-26T06:32:16.856Z,99.20
2019-01-26T06:34:47.206Z,99.27
2019-01-26T06:37:17.613Z,98.90
2019-01-26T06:39:47.981Z,99.20
2019-01-26T06:42:18.306Z,99.41
2019-01-26T06:44:48.698Z,99.50
2019-01-26T06:47:19.066Z,100.00
2019-01-26T06:49:49.297Z,100.00
2019-01-26T06:52:19.774Z,100.00
2019-01-26T06:54:50.265Z,98.54
2019-01-26T06:57:20.708Z,99.11
2019-01-26T06:59:51.046Z,100.00
2019-01-26T07:02:21.517Z,100.00
2019-01-26T07:05:00.090Z,100.00
2019-01-26T07:07:30.625Z,100.00
2019-01-26T07:10:00.928Z,100.00
2019-01-26T07:12:31.478Z,100.00
2019-01-26T07:15:01.888Z,100.00
2019-01-26T07:17:32.426Z,100.00
2019-01-26T07:20:02.813Z,99.73
2019-01-26T07:22:33.195Z,99.62
2019-01-26T07:25:03.615Z,99.63
2019-01-26T07:27:33.928Z,99.81
2019-01-26T07:30:05.070Z,99.65
2019-01-26T07:32:35.511Z,99.79
2019-01-26T07:35:06.267Z,100.00
2019-01-26T07:37:36.634Z,100.00
2019-01-26T07:40:10.321Z,99.84
2019-01-26T07:42:40.654Z,99.98
2019-01-26T07:45:12.101Z,98.90
2019-01-26T07:47:42.629Z,98.43
2019-01-26T07:50:17.833Z,99.00
2019-01-26T07:52:49.174Z,99.46
2019-01-26T07:55:19.679Z,99.29
2019-01-26T07:57:50.251Z,98.57
2019-01-26T08:00:26.286Z,98.31
2019-01-26T08:02:56.767Z,98.21
2019-01-26T08:05:27.681Z,97.97
2019-01-26T08:07:58.107Z,97.30
2019-01-26T08:10:28.631Z,96.46
2019-01-26T08:12:59.034Z,96.12
2019-01-26T08:15:33.665Z,95.48
2019-01-26T08:18:05.069Z,94.93
2019-01-26T08:20:35.511Z,95.26
2019-01-26T08:23:06.008Z,94.80
2019-01-26T08:25:36.482Z,94.14
2019-01-26T08:28:06.918Z,94.52
2019-01-26T08:30:37.424Z,94.41
2019-01-26T08:33:07.750Z,93.94
2019-01-26T08:35:38.152Z,93.95
2019-01-26T08:38:13.295Z,93.43
2019-01-26T08:40:43.678Z,93.91
2019-01-26T08:43:14.085Z,93.70
2019-01-26T08:45:44.596Z,93.90
2019-01-26T08:48:15.203Z,93.71
2019-01-26T08:50:45.642Z,93.39
2019-01-26T08:53:18.302Z,92.77
2019-01-26T08:55:48.636Z,92.13
2019-01-26T08:58:19.167Z,91.95
2019-01-26T09:00:49.610Z,91.70
2019-01-26T09:03:44.956Z,92.52
2019-01-26T09:06:36.743Z,92.75
2019-01-26T09:09:12.246Z,92.56
2019-01-26T09:11:42.782Z,93.01
2019-01-26T09:14:13.321Z,93.04
2019-01-26T09:16:43.878Z,92.69
2019-01-26T09:19:14.337Z,92.28
2019-01-26T09:21:44.884Z,92.35
2019-01-26T09:24:15.739Z,91.79
2019-01-26T09:26:46.227Z,92.00
2019-01-26T09:29:17.652Z,92.29
2019-01-26T09:31:48.586Z,91.83
2019-01-26T09:34:18.917Z,91.79
2019-01-26T09:36:49.404Z,92.36
2019-01-26T09:39:19.859Z,92.21
2019-01-26T09:41:50.338Z,92.47
2019-01-26T09:44:21.869Z,91.90
2019-01-26T09:46:52.791Z,90.71
2019-01-26T09:49:23.128Z,90.95
2019-01-26T09:51:53.746Z,91.12
2019-01-26T09:54:24.331Z,91.07
2019-01-26T09:56:54.804Z,89.91
2019-01-26T09:59:25.122Z,90.17
2019-01-26T10:01:55.496Z,89.84
2019-01-26T10:04:25.871Z,89.14
2019-01-26T10:06:56.320Z,89.36
2019-01-26T10:09:26.842Z,89.12
2019-01-26T10:11:57.409Z,89.99
2019-01-26T10:14:27.915Z,89.88
2019-01-26T10:16:58.437Z,88.46
2019-01-26T10:19:28.804Z,88.53
2019-01-26T10:21:59.543Z,88.85
2019-01-26T10:24:30.522Z,88.36
2019-01-26T10:27:01.212Z,88.32
2019-01-26T10:29:32.810Z,86.65
2019-01-26T10:32:03.547Z,85.38
2019-01-26T10:34:35.735Z,84.62
2019-01-26T10:37:13.218Z,84.57
2019-01-26T10:39:43.684Z,85.05
2019-01-26T10:42:31.292Z,84.29
2019-01-26T10:45:02.764Z,84.01
2019-01-26T10:47:33.164Z,83.75
2019-01-26T10:50:03.628Z,82.63
2019-01-26T10:52:34.114Z,81.73
2019-01-26T10:55:05.270Z,81.32
2019-01-26T10:57:35.726Z,80.70
2019-01-26T11:00:11.272Z,79.92
2019-01-26T11:02:41.711Z,79.65
2019-01-26T11:05:12.189Z,79.12
2019-01-26T11:07:42.516Z,79.17
2019-01-26T11:10:13.930Z,79.71
2019-01-26T11:12:44.400Z,79.32
2019-01-26T11:15:15.023Z,79.00
2019-01-26T11:17:45.516Z,79.63
2019-01-26T11:20:16.400Z,80.53
2019-01-26T11:22:46.878Z,81.46
2019-01-26T11:25:18.451Z,80.81
2019-01-26T11:27:48.886Z,81.64
2019-01-26T11:30:20.677Z,81.62
2019-01-26T11:32:51.150Z,81.75
2019-01-26T11:35:21.622Z,81.25
2019-01-26T11:37:52.185Z,81.23
2019-01-26T11:40:23.726Z,81.52
2019-01-26T11:42:54.221Z,79.74
2019-01-26T11:45:42.089Z,76.86
2019-01-26T11:48:19.737Z,78.36
2019-01-26T11:50:56.016Z,78.79
2019-01-26T11:53:27.321Z,79.35
2019-01-26T11:56:08.978Z,79.10
2019-01-26T11:58:39.394Z,79.00
2019-01-26T12:01:22.111Z,78.53
2019-01-26T12:04:10.777Z,76.65
2019-01-26T12:06:49.792Z,77.09
2019-01-26T12:09:20.418Z,78.41
2019-01-26T12:11:50.872Z,78.30
2019-01-26T12:14:21.162Z,78.55
2019-01-26T12:16:51.703Z,78.06
2019-01-26T12:19:22.608Z,79.10
2019-01-26T12:21:52.989Z,80.09
2019-01-26T12:24:23.729Z,81.24
2019-01-26T12:26:54.269Z,81.16
2019-01-26T12:29:24.655Z,81.85
2019-01-26T12:31:55.026Z,82.35
2019-01-26T12:34:25.444Z,82.32
2019-01-26T12:36:55.859Z,83.13
2019-01-26T12:39:26.418Z,82.50
2019-01-26T12:41:56.786Z,82.57
2019-01-26T12:44:27.255Z,83.12
2019-01-26T12:46:57.927Z,83.44
2019-01-26T12:49:30.842Z,84.03
2019-01-26T12:52:04.877Z,83.48
2019-01-26T12:54:35.003Z,84.17
2019-01-26T12:57:06.046Z,84.82
2019-01-26T12:59:36.555Z,84.42
2019-01-26T13:02:09.082Z,84.94
2019-01-26T13:04:39.804Z,85.13
2019-01-26T13:07:10.185Z,84.79
2019-01-26T13:09:40.566Z,84.05
2019-01-26T13:12:11.092Z,85.48
2019-01-26T13:14:41.616Z,86.83
2019-01-26T13:17:12.123Z,86.56
2019-01-26T13:19:42.575Z,86.25
2019-01-26T13:22:13.094Z,86.33
2019-01-26T13:24:43.374Z,85.82
2019-01-26T13:27:18.854Z,86.09
2019-01-26T13:29:49.252Z,86.99
2019-01-26T13:32:19.963Z,86.05
2019-01-26T13:34:50.670Z,86.27
2019-01-26T13:37:21.212Z,86.46
2019-01-26T13:39:51.542Z,86.39
2019-01-26T13:42:21.797Z,85.78
2019-01-26T13:44:52.163Z,86.17
2019-01-26T13:47:24.405Z,86.14
2019-01-26T13:49:54.731Z,85.86
2019-01-26T13:52:25.124Z,86.21
2019-01-26T13:54:55.614Z,86.34
2019-01-26T13:57:25.921Z,86.43
2019-01-26T13:59:56.216Z,86.26
2019-01-26T14:02:26.602Z,85.90
2019-01-26T14:04:56.991Z,86.63
2019-01-26T14:07:27.219Z,88.46
2019-01-26T14:09:57.575Z,89.45
2019-01-26T14:12:30.350Z,91.23
2019-01-26T14:15:00.793Z,91.14
2019-01-26T14:17:31.317Z,90.97
2019-01-26T14:20:02.295Z,91.80
2019-01-26T14:22:32.664Z,91.79
2019-01-26T14:25:03.066Z,91.81
2019-01-26T14:27:33.457Z,92.15
2019-01-26T14:30:04.782Z,92.72
2019-01-26T14:32:35.100Z,92.66
2019-01-26T14:35:05.755Z,92.65
2019-01-26T14:37:35.983Z,91.38
2019-01-26T14:40:07.166Z,92.42
2019-01-26T14:42:37.537Z,92.41
2019-01-26T14:45:09.473Z,92.28
2019-01-26T14:47:39.816Z,92.23
2019-01-26T14:50:11.997Z,92.24
2019-01-26T14:52:42.493Z,92.08
2019-01-26T14:55:17.007Z,92.22
2019-01-26T14:57:47.370Z,92.61
2019-01-26T15:00:25.429Z,93.27
2019-01-26T15:02:55.882Z,92.69
2019-01-26T15:05:27.023Z,92.60
2019-01-26T15:07:58.164Z,92.57
2019-01-26T15:10:28.592Z,92.93
2019-01-26T15:12:58.954Z,93.03
2019-01-26T15:15:29.435Z,93.33
2019-01-26T15:17:59.708Z,93.22
2019-01-26T15:20:34.108Z,93.64
2019-01-26T15:23:04.615Z,93.44
2019-01-26T15:25:34.969Z,93.89
2019-01-26T15:28:05.889Z,94.10
2019-01-26T15:30:42.553Z,94.75
2019-01-26T15:33:15.162Z,95.52
2019-01-26T15:35:45.607Z,95.29
2019-01-26T15:38:15.992Z,95.07
2019-01-26T15:40:46.410Z,95.69
2019-01-26T15:43:16.807Z,96.65
2019-01-26T15:45:49.808Z,97.17
2019-01-26T15:48:23.103Z,97.75
2019-01-26T15:50:53.532Z,98.14
2019-01-26T15:53:23.776Z,98.18
2019-01-26T15:55:54.110Z,97.93
2019-01-26T15:58:24.557Z,97.63
2019-01-26T16:00:54.795Z,97.61
2019-01-26T16:03:25.152Z,97.64
2019-01-26T16:05:55.508Z,97.73
2019-01-26T16:08:25.929Z,98.09
2019-01-26T16:10:56.094Z,98.50
2019-01-26T16:13:26.558Z,98.78
2019-01-26T16:15:56.867Z,98.34
2019-01-26T16:18:27.306Z,99.12
2019-01-26T16:20:57.731Z,100.00
2019-01-26T16:23:28.162Z,99.60
2019-01-26T16:25:58.587Z,99.35
2019-01-26T16:28:29.037Z,98.45
2019-01-26T16:31:00.086Z,97.81
2019-01-26T16:33:30.489Z,97.74
2019-01-26T16:36:00.711Z,96.33
2019-01-26T16:38:32.979Z,96.42
2019-01-26T16:41:03.283Z,96.51
2019-01-26T16:43:34.961Z,96.90
2019-01-26T16:46:05.798Z,96.37
2019-01-26T16:48:36.425Z,96.20
2019-01-26T16:51:06.882Z,95.49
2019-01-26T16:53:37.377Z,95.38
2019-01-26T16:56:10.074Z,95.53
2019-01-26T16:58:41.373Z,95.33
2019-01-26T17:01:11.764Z,95.69
2019-01-26T17:03:42.151Z,94.79
2019-01-26T17:06:12.548Z,94.52
2019-01-26T17:08:42.846Z,94.08
2019-01-26T17:11:16.801Z,94.68
2019-01-26T17:13:47.161Z,94.64
2019-01-26T17:16:17.569Z,94.43
2019-01-26T17:18:48.098Z,93.98
2019-01-26T17:21:18.472Z,94.04
2019-01-26T17:23:48.941Z,93.90
2019-01-26T17:26:19.328Z,94.14
2019-01-26T17:28:49.846Z,93.74
2019-01-26T17:31:20.415Z,93.39
2019-01-26T17:33:50.698Z,92.40
2019-01-26T17:36:21.851Z,92.29
2019-01-26T17:38:52.201Z,91.49
2019-01-26T17:41:22.363Z,91.51
2019-01-26T17:43:52.688Z,91.96
2019-01-26T17:46:23.028Z,92.33
2019-01-26T17:48:53.368Z,92.62
2019-01-26T17:51:24.035Z,92.54
2019-01-26T17:53:54.471Z,89.98
2019-01-26T17:56:24.709Z,89.80
2019-01-26T17:58:55.029Z,89.95
2019-01-26T18:01:25.474Z,90.53
2019-01-26T18:03:55.859Z,90.59
2019-01-26T18:06:26.231Z,91.14
2019-01-26T18:08:56.592Z,91.33
2019-01-26T18:11:26.932Z,91.63
2019-01-26T18:13:57.411Z,91.11
2019-01-26T18:16:27.732Z,91.02
2019-01-26T18:18:58.140Z,90.53
2019-01-26T18:21:28.595Z,91.04
2019-01-26T18:23:59.461Z,91.05
2019-01-26T18:26:29.865Z,90.95
2019-01-26T18:29:00.350Z,91.38
2019-01-26T18:31:30.720Z,91.74
2019-01-26T18:34:00.915Z,92.17
2019-01-26T18:36:31.522Z,93.14
2019-01-26T18:39:01.990Z,93.33
2019-01-26T18:41:32.522Z,94.42
2019-01-26T18:44:02.884Z,94.68
2019-01-26T18:46:56.548Z,94.77
2019-01-26T18:49:27.033Z,94.55
2019-01-26T18:51:57.453Z,95.40
2019-01-26T18:54:27.800Z,94.77
2019-01-26T18:56:58.227Z,94.41
2019-01-26T18:59:28.665Z,94.35
2019-01-26T19:01:59.239Z,94.26
2019-01-26T19:04:48.814Z,94.02
2019-01-26T19:07:19.173Z,93.79
2019-01-26T19:09:49.551Z,94.13
2019-01-26T19:12:20.052Z,93.55
2019-01-26T19:14:50.288Z,93.92
2019-01-26T19:17:20.637Z,94.28
2019-01-26T19:19:51.036Z,94.64
2019-01-26T19:22:21.405Z,93.90
2019-01-26T19:24:51.686Z,93.79
2019-01-26T19:27:22.133Z,93.64
2019-01-26T19:29:52.495Z,94.00
2019-01-26T19:32:22.857Z,94.05
2019-01-26T19:34:54.307Z,94.14
2019-01-26T19:37:24.647Z,93.80
2019-01-26T19:39:55.039Z,93.81
2019-01-26T19:42:25.540Z,93.97
2019-01-26T19:44:55.865Z,94.35
2019-01-26T19:47:26.271Z,94.64
2019-01-26T19:49:56.612Z,94.58
2019-01-26T19:52:26.999Z,94.95
2019-01-26T19:54:57.394Z,95.32
2019-01-26T19:57:27.763Z,95.41
2019-01-26T19:59:58.321Z,95.74
2019-01-26T20:02:29.890Z,94.94
2019-01-26T20:05:00.493Z,95.06
2019-01-26T20:07:31.061Z,95.29
2019-01-26T20:10:01.606Z,95.14
2019-01-26T20:12:32.311Z,95.67
2019-01-26T20:15:03.359Z,95.83
2019-01-26T20:17:34.047Z,95.77
2019-01-26T20:20:05.537Z,96.22
2019-01-26T20:22:35.953Z,96.31
2019-01-26T20:25:07.202Z,96.40
2019-01-26T20:27:37.605Z,96.46
2019-01-26T20:30:12.884Z,96.03
2019-01-26T20:32:43.530Z,95.04
2019-01-26T20:35:13.927Z,94.81
2019-01-26T20:37:44.248Z,95.81
2019-01-26T20:40:16.804Z,95.96
2019-01-26T20:42:47.225Z,96.19
2019-01-26T20:45:21.074Z,96.19
2019-01-26T20:47:51.661Z,96.76
2019-01-26T20:50:23.667Z,97.21
2019-01-26T20:52:54.135Z,97.37
2019-01-26T20:55:24.658Z,97.34
2019-01-26T20:57:55.176Z,97.61
2019-01-26T21:00:28.907Z,97.41
2019-01-26T21:02:59.457Z,97.58
2019-01-26T21:05:29.893Z,97.00
2019-01-26T21:08:00.231Z,96.79
2019-01-26T21:10:31.405Z,96.87
2019-01-26T21:13:03.970Z,96.91
2019-01-26T21:15:34.427Z,96.92
2019-01-26T21:18:04.881Z,96.99
2019-01-26T21:20:35.337Z,96.80
2019-01-26T21:23:06.739Z,96.62
2019-01-26T21:25:37.230Z,96.65
2019-01-26T21:28:07.802Z,96.83
2019-01-26T21:30:38.201Z,96.57
2019-01-26T21:33:08.685Z,96.31
2019-01-26T21:35:39.035Z,95.75
2019-01-26T21:38:09.532Z,95.10
2019-01-26T21:40:41.150Z,95.30
2019-01-26T21:43:11.629Z,94.07
2019-01-26T21:45:57.193Z,93.42
2019-01-26T21:48:27.617Z,93.41
2019-01-26T21:50:57.944Z,93.70
2019-01-26T21:53:28.340Z,94.15
2019-01-26T21:55:58.795Z,93.79
2019-01-26T21:58:29.061Z,93.15
2019-01-26T22:00:59.591Z,93.29
2019-01-26T22:03:31.050Z,92.83
2019-01-26T22:06:02.253Z,92.71
2019-01-26T22:08:32.578Z,92.83
2019-01-26T22:11:03.891Z,92.78
2019-01-26T22:13:34.442Z,92.71
2019-01-26T22:16:04.951Z,92.92
2019-01-26T22:18:35.295Z,92.26
2019-01-26T22:21:07.953Z,91.95
2019-01-26T22:23:38.831Z,91.90
2019-01-26T22:26:09.339Z,91.75
2019-01-26T22:28:39.810Z,92.22
2019-01-26T22:31:10.133Z,91.79
2019-01-26T22:33:40.371Z,91.42
2019-01-26T22:36:10.688Z,91.86
2019-01-26T22:38:41.103Z,92.09
2019-01-26T22:41:11.511Z,91.97
2019-01-26T22:43:41.750Z,91.72
2019-01-26T22:46:12.159Z,91.52
2019-01-26T22:48:42.534Z,92.25
2019-01-26T22:51:14.669Z,92.54
2019-01-26T22:53:45.133Z,92.16
2019-01-26T22:56:16.994Z,92.01
2019-01-26T22:58:47.454Z,92.19
2019-01-26T23:01:35.138Z,92.23
2019-01-26T23:04:50.399Z,90.86
2019-01-26T23:07:57.313Z,90.67
2019-01-26T23:11:36.101Z,91.31
2019-01-26T23:15:23.642Z,91.83
2019-01-26T23:18:46.253Z,91.78
2019-01-26T23:21:47.420Z,91.20
2019-01-26T23:25:22.033Z,91.56
2019-01-26T23:28:14.984Z,91.37
2019-01-26T23:31:21.667Z,91.54
2019-01-26T23:33:54.015Z,91.54
2019-01-26T23:36:24.490Z,92.18
2019-01-26T23:39:01.937Z,92.61
2019-01-26T23:41:27.108Z,92.42
2019-01-26T23:43:57.510Z,91.72
2019-01-26T23:46:27.838Z,91.71
2019-01-26T23:48:58.874Z,91.82
2019-01-26T23:51:29.356Z,90.99
2019-01-26T23:53:59.717Z,91.61
2019-01-26T23:56:30.050Z,92.12
2019-01-26T23:59:00.390Z,92.00
